createdAt,value
2018-07-31T00:01:44.326Z,97.30
2018-07-31T00:04:14.494Z,96.50
2018-07-31T00:06:44.378Z,95.90
2018-07-31T00:09:14.551Z,95.00
2018-07-31T00:11:44.374Z,94.50
2018-07-31T00:14:14.136Z,95.30
2018-07-31T00:16:43.939Z,94.90
2018-07-31T00:19:14.026Z,95.50
2018-07-31T00:21:44.039Z,96.00
2018-07-31T00:24:14.159Z,95.60
2018-07-31T00:26:43.961Z,96.60
2018-07-31T00:29:14.234Z,96.40
2018-07-31T00:31:44.153Z,96.60
2018-07-31T00:34:13.964Z,97.20
2018-07-31T00:36:43.967Z,96.50
2018-07-31T00:39:13.917Z,95.60
2018-07-31T00:41:44.149Z,95.90
2018-07-31T00:44:14.137Z,97.20
2018-07-31T00:46:44.312Z,98.40
2018-07-31T00:49:14.421Z,96.90
2018-07-31T00:51:44.510Z,95.90
2018-07-31T00:54:14.540Z,96.90
2018-07-31T00:56:44.321Z,98.10
2018-07-31T00:59:14.354Z,98.10
2018-07-31T01:01:44.566Z,96.70
2018-07-31T01:04:14.706Z,96.20
2018-07-31T01:06:44.979Z,97.60
2018-07-31T01:09:15.651Z,97.70
2018-07-31T01:11:45.454Z,96.70
2018-07-31T01:14:15.590Z,97.30
2018-07-31T01:16:45.749Z,98.30
2018-07-31T01:19:15.553Z,97.20
2018-07-31T01:21:45.693Z,96.30
2018-07-31T01:24:15.714Z,96.80
2018-07-31T01:26:45.737Z,96.40
2018-07-31T01:29:15.792Z,96.20
2018-07-31T01:31:45.836Z,96.50
2018-07-31T01:34:15.748Z,98.40
2018-07-31T01:36:45.610Z,98.00
2018-07-31T01:39:15.447Z,98.10
2018-07-31T01:41:45.439Z,99.20
2018-07-31T01:44:15.406Z,97.60
2018-07-31T01:46:45.446Z,97.40
2018-07-31T01:49:15.263Z,97.30
2018-07-31T01:51:44.979Z,96.50
2018-07-31T01:54:14.791Z,97.90
2018-07-31T01:56:44.669Z,98.80
2018-07-31T01:59:14.826Z,98.90
2018-07-31T02:01:44.550Z,99.90
2018-07-31T02:04:14.310Z,99.30
2018-07-31T02:06:44.527Z,99.90
2018-07-31T02:09:14.331Z,99.50
2018-07-31T02:11:44.261Z,98.20
2018-07-31T02:14:14.052Z,97.40
2018-07-31T02:16:44.226Z,97.20
2018-07-31T02:19:13.972Z,97.50
2018-07-31T02:21:43.761Z,97.30
2018-07-31T02:24:13.565Z,98.10
2018-07-31T02:26:43.354Z,97.80
2018-07-31T02:29:13.418Z,97.60
2018-07-31T02:31:43.252Z,98.80
2018-07-31T02:34:13.210Z,99.20
2018-07-31T02:36:43.504Z,99.90
2018-07-31T02:39:13.510Z,99.90
2018-07-31T02:41:43.324Z,99.90
2018-07-31T02:44:13.057Z,99.90
2018-07-31T02:46:42.863Z,99.90
2018-07-31T02:49:12.859Z,99.90
2018-07-31T02:51:42.917Z,99.90
2018-07-31T02:54:13.114Z,99.80
2018-07-31T02:56:42.911Z,99.10
2018-07-31T02:59:12.902Z,98.80
2018-07-31T03:01:42.655Z,98.50
2018-07-31T03:04:12.426Z,98.80
2018-07-31T03:06:42.274Z,99.30
2018-07-31T03:09:12.059Z,99.90
2018-07-31T03:11:41.884Z,99.80
2018-07-31T03:14:11.676Z,98.90
2018-07-31T03:16:41.987Z,99.30
2018-07-31T03:19:11.996Z,99.10
2018-07-31T03:21:41.963Z,99.90
2018-07-31T03:24:11.982Z,99.90
2018-07-31T03:26:41.766Z,99.90
2018-07-31T03:29:11.995Z,99.90
2018-07-31T03:31:41.723Z,99.90
2018-07-31T03:34:11.477Z,99.90
2018-07-31T03:36:41.811Z,99.90
2018-07-31T03:39:11.810Z,99.90
2018-07-31T03:41:41.890Z,99.90
2018-07-31T03:44:11.869Z,99.80
2018-07-31T03:46:42.023Z,99.90
2018-07-31T03:49:12.010Z,99.90
2018-07-31T03:51:42.027Z,99.30
2018-07-31T03:54:12.141Z,99.90
2018-07-31T03:56:41.914Z,99.90
2018-07-31T03:59:12.327Z,99.90
2018-07-31T04:01:42.410Z,99.90
2018-07-31T04:04:12.626Z,99.90
2018-07-31T04:06:43.119Z,99.90
2018-07-31T04:09:14.121Z,99.90
2018-07-31T04:11:44.098Z,99.60
2018-07-31T04:14:14.151Z,99.10
2018-07-31T04:16:44.106Z,99.70
2018-07-31T04:19:13.891Z,99.90
2018-07-31T04:21:43.634Z,99.90
2018-07-31T04:24:13.586Z,99.90
2018-07-31T04:26:43.518Z,99.90
2018-07-31T04:29:13.398Z,99.90
2018-07-31T04:31:43.940Z,99.90
2018-07-31T04:34:13.942Z,99.90
2018-07-31T04:36:43.693Z,99.90
2018-07-31T04:39:14.642Z,99.90
2018-07-31T04:41:44.594Z,99.90
2018-07-31T04:44:14.529Z,99.90
2018-07-31T04:46:44.309Z,99.90
2018-07-31T04:49:15.269Z,99.90
2018-07-31T04:51:46.384Z,99.90
2018-07-31T04:54:16.458Z,99.90
2018-07-31T04:56:46.318Z,99.90
2018-07-31T04:59:16.554Z,99.90
2018-07-31T05:01:46.370Z,99.90
2018-07-31T05:04:16.171Z,99.90
2018-07-31T05:06:46.178Z,99.60
2018-07-31T05:09:16.300Z,99.50
2018-07-31T05:11:46.240Z,99.50
2018-07-31T05:14:16.427Z,99.30
2018-07-31T05:16:46.258Z,99.70
2018-07-31T05:19:16.279Z,99.90
2018-07-31T05:21:46.226Z,99.90
2018-07-31T05:24:16.323Z,99.90
2018-07-31T05:26:46.214Z,99.90
2018-07-31T05:29:16.264Z,99.90
2018-07-31T05:31:46.242Z,99.90
2018-07-31T05:34:16.118Z,99.90
2018-07-31T05:36:46.272Z,99.90
2018-07-31T05:39:16.015Z,99.90
2018-07-31T05:41:45.934Z,99.90
2018-07-31T05:44:15.931Z,99.90
2018-07-31T05:46:45.699Z,99.90
2018-07-31T05:49:15.494Z,99.90
2018-07-31T05:51:45.615Z,99.90
2018-07-31T05:54:15.514Z,99.90
2018-07-31T05:56:45.508Z,99.90
2018-07-31T05:59:15.251Z,99.90
2018-07-31T06:01:45.554Z,99.90
2018-07-31T06:04:15.582Z,99.90
2018-07-31T06:06:45.529Z,99.90
2018-07-31T06:09:16.123Z,99.90
2018-07-31T06:11:46.283Z,99.90
2018-07-31T06:14:16.487Z,99.90
2018-07-31T06:16:46.770Z,99.90
2018-07-31T06:19:16.886Z,99.90
2018-07-31T06:21:46.972Z,99.90
2018-07-31T06:24:16.863Z,99.80
2018-07-31T06:26:46.880Z,99.60
2018-07-31T06:29:17.093Z,99.90
2018-07-31T06:31:47.246Z,99.90
2018-07-31T06:34:17.276Z,99.70
2018-07-31T06:36:47.322Z,99.70
2018-07-31T06:39:17.087Z,99.30
2018-07-31T06:41:47.202Z,99.90
2018-07-31T06:44:16.959Z,99.60
2018-07-31T06:46:47.091Z,99.30
2018-07-31T06:49:17.226Z,99.90
2018-07-31T06:51:47.013Z,99.90
2018-07-31T06:54:17.020Z,99.90
2018-07-31T06:56:46.842Z,99.40
2018-07-31T06:59:16.847Z,99.90
2018-07-31T07:01:46.778Z,99.00
2018-07-31T07:04:16.965Z,98.50
2018-07-31T07:06:46.798Z,98.90
2018-07-31T07:09:16.760Z,98.30
2018-07-31T07:11:46.803Z,98.00
2018-07-31T07:14:16.931Z,97.80
2018-07-31T07:16:46.744Z,98.20
2018-07-31T07:19:16.931Z,97.70
2018-07-31T07:21:46.929Z,97.60
2018-07-31T07:24:16.855Z,98.10
2018-07-31T07:26:46.790Z,97.60
2018-07-31T07:29:17.126Z,98.40
2018-07-31T07:31:47.106Z,98.00
2018-07-31T07:34:16.911Z,98.30
2018-07-31T07:36:46.875Z,97.70
2018-07-31T07:39:16.758Z,98.10
2018-07-31T07:41:47.041Z,97.50
2018-07-31T07:44:16.966Z,97.60
2018-07-31T07:46:47.009Z,97.20
2018-07-31T07:49:17.155Z,96.70
2018-07-31T07:51:47.138Z,97.20
2018-07-31T07:54:17.048Z,97.10
2018-07-31T07:56:46.986Z,96.90
2018-07-31T07:59:17.271Z,96.50
2018-07-31T08:01:47.254Z,96.90
2018-07-31T08:04:17.202Z,97.10
2018-07-31T08:06:47.476Z,97.20
2018-07-31T08:09:18.230Z,96.70
2018-07-31T08:11:48.422Z,95.80
2018-07-31T08:14:18.338Z,95.80
2018-07-31T08:16:48.429Z,95.20
2018-07-31T08:19:18.318Z,94.80
2018-07-31T08:21:48.174Z,95.00
2018-07-31T08:24:17.960Z,94.80
2018-07-31T08:26:48.034Z,93.80
2018-07-31T08:29:18.099Z,93.60
2018-07-31T08:31:48.189Z,93.40
2018-07-31T08:34:17.958Z,93.00
2018-07-31T08:36:47.842Z,93.10
2018-07-31T08:39:17.626Z,92.60
2018-07-31T08:41:47.460Z,92.30
2018-07-31T08:44:17.545Z,91.30
2018-07-31T08:46:47.380Z,90.50
2018-07-31T08:49:17.294Z,90.10
2018-07-31T08:51:47.269Z,88.90
2018-07-31T08:54:17.516Z,88.20
2018-07-31T08:56:47.609Z,88.00
2018-07-31T08:59:17.379Z,86.50
2018-07-31T09:01:47.662Z,86.60
2018-07-31T09:04:17.393Z,87.10
2018-07-31T09:06:47.191Z,87.30
2018-07-31T09:09:17.379Z,85.40
2018-07-31T09:11:47.387Z,85.70
2018-07-31T09:14:17.205Z,84.50
2018-07-31T09:16:47.479Z,84.40
2018-07-31T09:19:17.447Z,83.90
2018-07-31T09:21:47.449Z,84.40
2018-07-31T09:24:17.255Z,84.60
2018-07-31T09:26:47.187Z,84.00
2018-07-31T09:29:17.160Z,84.10
2018-07-31T09:31:47.130Z,84.10
2018-07-31T09:34:17.215Z,83.20
2018-07-31T09:36:47.216Z,81.70
2018-07-31T09:39:16.994Z,80.30
2018-07-31T09:41:47.019Z,80.60
2018-07-31T09:44:17.742Z,80.00
2018-07-31T09:46:47.590Z,77.90
2018-07-31T09:49:18.012Z,77.70
2018-07-31T09:51:48.634Z,78.20
2018-07-31T09:54:18.665Z,77.80
2018-07-31T09:56:48.622Z,76.80
2018-07-31T09:59:18.742Z,75.90
2018-07-31T10:01:48.540Z,75.40
2018-07-31T10:04:18.907Z,73.80
2018-07-31T10:06:48.878Z,72.80
2018-07-31T10:09:19.233Z,73.80
2018-07-31T10:11:49.336Z,73.40
2018-07-31T10:14:19.550Z,74.00
2018-07-31T10:16:50.672Z,73.60
2018-07-31T10:19:20.651Z,74.30
2018-07-31T10:21:50.496Z,74.10
2018-07-31T10:24:21.055Z,73.50
2018-07-31T10:26:51.079Z,74.50
2018-07-31T10:29:20.818Z,74.20
2018-07-31T10:31:51.303Z,73.90
2018-07-31T10:34:21.394Z,74.40
2018-07-31T10:36:51.388Z,73.60
2018-07-31T10:39:21.179Z,73.60
2018-07-31T10:41:51.118Z,73.50
2018-07-31T10:44:20.873Z,73.00
2018-07-31T10:46:50.870Z,73.00
2018-07-31T10:49:21.282Z,72.70
2018-07-31T10:51:51.628Z,72.50
2018-07-31T10:54:21.526Z,72.70
2018-07-31T10:56:51.595Z,72.20
2018-07-31T10:59:21.397Z,72.40
2018-07-31T11:01:51.428Z,72.40
2018-07-31T11:04:21.279Z,71.10
2018-07-31T11:06:51.665Z,71.90
2018-07-31T11:09:23.014Z,68.90
2018-07-31T11:11:52.963Z,70.50
2018-07-31T11:14:22.780Z,69.00
2018-07-31T11:16:52.559Z,70.00
2018-07-31T11:19:22.526Z,69.60
2018-07-31T11:21:52.422Z,69.80
2018-07-31T11:24:22.438Z,69.20
2018-07-31T11:26:52.238Z,69.10
2018-07-31T11:29:22.287Z,69.50
2018-07-31T11:31:52.098Z,70.50
2018-07-31T11:34:22.084Z,69.50
2018-07-31T11:36:52.108Z,69.10
2018-07-31T11:39:21.924Z,68.70
2018-07-31T11:41:52.699Z,69.30
2018-07-31T11:44:23.379Z,68.20
2018-07-31T11:46:55.569Z,68.50
2018-07-31T11:49:25.703Z,68.20
2018-07-31T11:51:57.240Z,67.80
2018-07-31T11:54:32.265Z,67.90
2018-07-31T11:57:03.209Z,67.10
2018-07-31T11:59:33.195Z,67.00
2018-07-31T12:02:03.339Z,66.50
2018-07-31T12:04:38.693Z,65.10
2018-07-31T12:07:08.670Z,64.80
2018-07-31T12:09:40.618Z,64.90
2018-07-31T12:12:11.324Z,65.00
2018-07-31T12:14:41.292Z,64.90
2018-07-31T12:17:11.119Z,65.30
2018-07-31T12:19:41.055Z,65.90
2018-07-31T12:22:11.859Z,64.60
2018-07-31T12:24:41.697Z,64.70
2018-07-31T12:27:11.643Z,65.30
2018-07-31T12:29:41.406Z,65.20
2018-07-31T12:32:11.379Z,65.00
2018-07-31T12:34:49.580Z,63.20
2018-07-31T12:37:19.761Z,64.10
2018-07-31T12:39:49.557Z,63.60
2018-07-31T12:42:19.680Z,63.70
2018-07-31T12:44:52.580Z,64.50
2018-07-31T12:47:33.451Z,63.70
2018-07-31T12:50:03.674Z,63.70
2018-07-31T12:52:33.582Z,63.40
2018-07-31T12:55:04.385Z,62.90
2018-07-31T12:57:34.402Z,63.40
2018-07-31T13:00:04.357Z,63.70
2018-07-31T13:02:34.250Z,63.60
2018-07-31T13:05:04.194Z,64.10
2018-07-31T13:07:33.978Z,63.00
2018-07-31T13:10:04.046Z,62.70
2018-07-31T13:12:33.868Z,63.30
2018-07-31T13:15:03.876Z,63.30
2018-07-31T13:17:37.592Z,63.40
2018-07-31T13:20:07.456Z,63.80
2018-07-31T13:22:39.995Z,63.60
2018-07-31T13:25:10.085Z,63.50
2018-07-31T13:27:40.408Z,63.70
2018-07-31T13:30:10.302Z,64.30
2018-07-31T13:32:40.298Z,63.20
2018-07-31T13:35:10.304Z,63.80
2018-07-31T13:37:40.651Z,62.20
2018-07-31T13:40:10.702Z,63.70
2018-07-31T13:42:40.665Z,63.20
2018-07-31T13:45:10.586Z,63.40
2018-07-31T13:47:40.386Z,63.80
2018-07-31T13:50:10.654Z,62.60
2018-07-31T13:52:41.261Z,62.60
2018-07-31T13:55:11.280Z,62.00
2018-07-31T13:57:41.371Z,62.40
2018-07-31T14:00:11.844Z,63.40
2018-07-31T14:02:43.870Z,63.00
2018-07-31T14:05:14.796Z,63.70
2018-07-31T14:07:44.770Z,63.00
2018-07-31T14:10:15.038Z,62.50
2018-07-31T14:12:45.733Z,63.10
2018-07-31T14:15:15.962Z,62.40
2018-07-31T14:17:45.895Z,62.60
2018-07-31T14:20:15.906Z,62.90
2018-07-31T14:22:45.862Z,63.20
2018-07-31T14:25:15.872Z,62.80
2018-07-31T14:27:45.942Z,62.40
2018-07-31T14:30:16.026Z,62.70
2018-07-31T14:32:46.189Z,62.90
2018-07-31T14:35:16.148Z,62.20
2018-07-31T14:37:46.219Z,62.30
2018-07-31T14:40:16.468Z,62.20
2018-07-31T14:42:46.739Z,61.80
2018-07-31T14:45:16.824Z,62.20
2018-07-31T14:47:46.676Z,62.10
2018-07-31T14:50:17.260Z,61.10
2018-07-31T14:52:47.363Z,61.70
2018-07-31T14:55:17.415Z,61.30
2018-07-31T14:57:47.507Z,61.60
2018-07-31T15:00:17.644Z,61.70
2018-07-31T15:02:47.618Z,62.00
2018-07-31T15:05:17.770Z,61.20
2018-07-31T15:07:48.756Z,61.80
2018-07-31T15:10:19.153Z,61.60
2018-07-31T15:12:49.202Z,61.50
2018-07-31T15:15:19.967Z,61.10
2018-07-31T15:17:50.077Z,60.60
2018-07-31T15:20:20.225Z,61.30
2018-07-31T15:22:50.435Z,60.90
2018-07-31T15:25:20.394Z,60.40
2018-07-31T15:28:01.152Z,59.40
2018-07-31T15:30:31.428Z,60.30
2018-07-31T15:33:01.626Z,59.70
2018-07-31T15:35:31.805Z,59.10
2018-07-31T15:38:01.785Z,59.10
2018-07-31T15:40:31.993Z,58.50
2018-07-31T15:43:02.207Z,58.70
2018-07-31T15:45:37.007Z,58.60
2018-07-31T15:48:07.406Z,59.00
2018-07-31T15:50:37.595Z,59.30
2018-07-31T15:53:27.750Z,58.70
2018-07-31T15:55:57.954Z,57.20
2018-07-31T15:58:28.428Z,57.20
2018-07-31T16:04:09.899Z,57.70
2018-07-31T16:06:48.892Z,56.10
2018-07-31T16:09:19.426Z,57.20
2018-07-31T16:11:53.248Z,56.80
2018-07-31T16:14:49.656Z,55.70
2018-07-31T16:17:20.568Z,55.70
2018-07-31T16:19:50.667Z,56.00
2018-07-31T16:22:20.655Z,55.20
2018-07-31T16:24:53.243Z,56.40
2018-07-31T16:27:25.574Z,55.00
2018-07-31T16:29:55.948Z,54.60
2018-07-31T16:32:26.606Z,55.70
2018-07-31T16:34:58.720Z,55.60
2018-07-31T16:40:39.613Z,55.80
2018-07-31T16:43:11.070Z,55.20
2018-07-31T16:45:41.249Z,53.90
2018-07-31T16:48:12.369Z,55.10
2018-07-31T16:50:43.560Z,54.40
2018-07-31T16:53:13.571Z,54.60
2018-07-31T16:55:43.680Z,54.60
2018-07-31T17:01:51.705Z,54.90
2018-07-31T17:07:20.538Z,55.30
2018-07-31T17:10:14.654Z,55.80
2018-07-31T17:12:57.919Z,55.90
2018-07-31T17:15:27.699Z,55.90
2018-07-31T17:18:21.345Z,56.00
2018-07-31T17:21:20.482Z,57.10
2018-07-31T17:24:10.475Z,56.50
2018-07-31T17:26:40.419Z,56.30
2018-07-31T17:29:10.280Z,56.90
2018-07-31T17:31:40.199Z,56.70
2018-07-31T17:34:10.688Z,57.70
2018-07-31T17:36:40.938Z,58.10
2018-07-31T17:39:11.851Z,58.90
2018-07-31T17:41:42.147Z,59.60
2018-07-31T17:44:12.097Z,60.50
2018-07-31T17:46:42.014Z,60.30
2018-07-31T17:49:13.299Z,61.10
2018-07-31T17:51:43.456Z,61.80
2018-07-31T17:54:15.185Z,62.70
2018-07-31T17:56:45.311Z,62.90
2018-07-31T17:59:15.257Z,63.50
2018-07-31T18:01:45.411Z,63.80
2018-07-31T18:04:15.558Z,63.90
2018-07-31T18:06:49.306Z,63.10
2018-07-31T18:09:20.041Z,63.60
2018-07-31T18:11:50.236Z,64.30
2018-07-31T18:14:21.857Z,63.80
2018-07-31T18:16:52.711Z,64.40
2018-07-31T18:19:24.129Z,64.60
2018-07-31T18:21:54.374Z,65.20
2018-07-31T18:24:24.626Z,65.10
2018-07-31T18:26:54.655Z,65.30
2018-07-31T18:29:24.667Z,65.70
2018-07-31T18:31:54.719Z,66.20
2018-07-31T18:34:24.710Z,67.40
2018-07-31T18:36:54.824Z,67.70
2018-07-31T18:39:24.918Z,68.50
2018-07-31T18:41:54.927Z,68.70
2018-07-31T18:44:25.269Z,68.70
2018-07-31T18:46:55.067Z,68.80
2018-07-31T18:49:25.282Z,69.10
2018-07-31T18:51:55.162Z,68.50
2018-07-31T18:54:26.341Z,69.10
2018-07-31T18:56:56.446Z,69.50
2018-07-31T18:59:26.221Z,69.60
2018-07-31T19:01:56.308Z,69.40
2018-07-31T19:04:26.657Z,69.90
2018-07-31T19:06:57.515Z,69.60
2018-07-31T19:09:27.786Z,70.40
2018-07-31T19:11:58.616Z,69.90
2018-07-31T19:14:28.659Z,69.80
2018-07-31T19:17:00.548Z,70.30
2018-07-31T19:19:30.823Z,70.60
2018-07-31T19:22:02.332Z,70.60
2018-07-31T19:24:32.549Z,71.00
2018-07-31T19:27:02.910Z,70.60
2018-07-31T19:29:32.986Z,71.10
2018-07-31T19:32:04.369Z,71.30
2018-07-31T19:34:42.901Z,71.30
2018-07-31T19:37:13.404Z,72.10
2018-07-31T19:39:47.376Z,72.70
2018-07-31T19:42:19.076Z,73.10
2018-07-31T19:44:49.708Z,72.70
2018-07-31T19:47:20.092Z,73.10
2018-07-31T19:49:50.547Z,73.40
2018-07-31T19:52:22.456Z,73.30
2018-07-31T19:54:53.711Z,72.90
2018-07-31T19:57:24.157Z,73.90
2018-07-31T19:59:54.895Z,74.30
2018-07-31T20:02:25.382Z,74.30
2018-07-31T20:04:55.953Z,74.20
2018-07-31T20:07:26.251Z,74.10
2018-07-31T20:09:56.664Z,73.90
2018-07-31T20:12:26.792Z,73.90
2018-07-31T20:14:56.711Z,73.60
2018-07-31T20:17:33.098Z,73.40
2018-07-31T20:20:03.501Z,74.00
2018-07-31T20:22:33.335Z,74.00
2018-07-31T20:25:03.245Z,74.40
2018-07-31T20:27:33.018Z,75.30
2018-07-31T20:30:03.050Z,75.20
2018-07-31T20:32:32.823Z,75.80
2018-07-31T20:35:02.711Z,76.20
2018-07-31T20:37:32.622Z,76.10
2018-07-31T20:40:02.650Z,76.30
2018-07-31T20:42:32.638Z,76.20
2018-07-31T20:45:02.612Z,75.60
2018-07-31T20:47:32.529Z,75.90
2018-07-31T20:50:03.691Z,76.50
2018-07-31T20:52:33.511Z,76.30
2018-07-31T20:55:03.286Z,77.00
2018-07-31T20:57:33.286Z,78.20
2018-07-31T21:00:03.390Z,78.30
2018-07-31T21:02:33.552Z,78.40
2018-07-31T21:05:03.935Z,78.40
2018-07-31T21:07:33.819Z,78.60
2018-07-31T21:10:03.915Z,78.60
2018-07-31T21:12:40.343Z,78.60
2018-07-31T21:15:10.420Z,77.70
2018-07-31T21:17:40.457Z,77.80
2018-07-31T21:20:10.652Z,79.20
2018-07-31T21:22:41.251Z,80.60
2018-07-31T21:25:12.276Z,81.30
2018-07-31T21:27:42.336Z,80.00
2018-07-31T21:30:12.142Z,78.20
2018-07-31T21:32:42.035Z,77.30
2018-07-31T21:35:26.485Z,77.50
2018-07-31T21:37:56.446Z,77.90
2018-07-31T21:40:27.601Z,79.00
2018-07-31T21:42:57.486Z,79.90
2018-07-31T21:45:27.453Z,81.50
2018-07-31T21:47:57.213Z,82.20
2018-07-31T21:50:27.083Z,83.40
2018-07-31T21:52:56.862Z,83.60
2018-07-31T21:55:27.022Z,84.20
2018-07-31T21:57:57.049Z,84.70
2018-07-31T22:00:27.762Z,82.90
2018-07-31T22:02:57.528Z,81.80
2018-07-31T22:05:27.460Z,82.20
2018-07-31T22:08:03.358Z,83.50
2018-07-31T22:10:45.443Z,83.90
2018-07-31T22:13:17.459Z,83.90
2018-07-31T22:15:47.362Z,84.00
2018-07-31T22:18:17.244Z,84.00
2018-07-31T22:20:47.265Z,83.30
2018-07-31T22:23:17.275Z,82.60
2018-07-31T22:25:47.341Z,83.30
2018-07-31T22:28:17.293Z,82.70
2018-07-31T22:30:47.274Z,83.40
2018-07-31T22:33:17.349Z,82.90
2018-07-31T22:35:59.194Z,82.70
2018-07-31T22:38:29.022Z,83.20
2018-07-31T22:40:58.986Z,83.10
2018-07-31T22:43:28.904Z,83.30
2018-07-31T22:45:59.370Z,83.20
2018-07-31T22:48:29.269Z,82.60
2018-07-31T22:50:59.245Z,82.50
2018-07-31T22:53:29.291Z,83.70
2018-07-31T22:55:59.386Z,83.70
2018-07-31T22:58:29.228Z,83.00
2018-07-31T23:00:59.887Z,83.20
2018-07-31T23:03:30.200Z,82.60
2018-07-31T23:06:00.571Z,82.40
2018-07-31T23:08:30.465Z,83.30
2018-07-31T23:11:00.290Z,83.40
2018-07-31T23:13:30.175Z,83.40
2018-07-31T23:16:00.482Z,83.50
2018-07-31T23:18:30.467Z,83.40
2018-07-31T23:21:00.423Z,83.20
2018-07-31T23:23:30.449Z,83.80
2018-07-31T23:26:00.302Z,83.60
2018-07-31T23:28:30.147Z,83.90
2018-07-31T23:30:59.943Z,84.10
2018-07-31T23:33:31.083Z,83.60
2018-07-31T23:36:01.228Z,84.10
2018-07-31T23:38:31.213Z,83.80
2018-07-31T23:41:01.230Z,84.30
2018-07-31T23:43:31.110Z,85.00
2018-07-31T23:46:00.822Z,84.90
2018-07-31T23:48:30.907Z,84.90
2018-07-31T23:51:00.982Z,85.10
2018-07-31T23:53:31.003Z,85.20
2018-07-31T23:56:01.074Z,85.30
2018-07-31T23:58:30.982Z,85.10
